Acequia, ID

7:26 AM MDT on October 23, 2014 (GMT -0600)
Burley Municipal | Change Station
CLOSE
Current Station
Airport
Location: Burley,
Elevation: 4150 ft
Nearby Weather Stations

Elev 4150 ft 42.54 °N, 113.77 °W | Updated 33 minutes ago

Partly Cloudy
Partly Cloudy
40 °F
Feels Like 40 °F
N
0
Wind Variable Wind from North

Today
High -- | Low -- °F
--% Chance of Precip.
Yesterday
High -- | Low -- °F
Precip. -- in
7:57 AM 6:40 PM
Waning Crescent, 0% visible
Pressure 30.02 in
Visibility 10.0 miles
Clouds Clear
Dew Point 30 °F
Humidity 68%
Rainfall 0.00 in
Snow Depth Not available.
UV 0 out of 12
Pollen 3.00 out of 12
Air Quality Not available.
Flu Activity Sporadic
METAR KBYI 231253Z AUTO 00000KT 10SM CLR 04/M01 A3005 RMK AO2 SLP165 T00441011

More Conditions Fewer Conditions

Pressure 30.02 in
Visibility 10.0 miles
Clouds Clear
Dew Point 30 °F
Humidity 68%
Rainfall 0.00 in
Snow Depth Not available.
UV 0 out of 12
Pollen 3.00 out of 12
Air Quality Not available.
Flu Activity Sporadic
METAR KBYI 231253Z AUTO 00000KT 10SM CLR 04/M01 A3005 RMK AO2 SLP165 T00441011

More Conditions Fewer Conditions

10-Day Weather Forecast

Almanac

Astronomy

Oct. 23, 2014 Rise Set
Actual Time 7:57 AM MDT 6:40 PM MDT
Civil Twilight 7:29 AM MDT 7:09 PM MDT
Nautical Twilight 6:56 AM MDT 7:41 PM MDT
Astronomical Twilight 6:23 AM MDT 8:14 PM MDT
Moon 7:41 AM MDT 6:44 PM MDT
Length of Visible Light 11h 39m
Length of Day
10h 42m
Tomorrow will be 2m 42s shorter.
Waning Crescent, 0% of the Moon is Illuminated
Today
Waning Crescent
Oct 23
New
Oct 30
First Quarter
Nov 6
Full
Nov 14
Last Quarter

Today's Extremes

State Highs State Lows

Community

WunderPhotos

Upload Photos

1,764,235 photos uploaded!

Nearby

Snow Depth

Station Depth Elevation
Bostetter R.S. 0 in 7500 ft
Magic Mountain 1 in 6880 ft
Wildhorse Divide 0 in 6490 ft
Swede Peak 1 in 7640 ft
Wilson Creek 0 in 7120 ft

Earthquake Activity

City Distance Mag. Time & Date
No recent earthquake activity has been reported nearby.
Minimum magnitude displayed is 2.5.

Coastal Water Temperatures

Place Temperature
No Stations Reporting

Nearby Weather Stations